Airfield :
LOGIN :

Register | Disclaimer

   EN    FR    IT 

 










Legend :    VFR   Marginal VFR   IFR   Intensive IFR   Very Intensive IFR
Visi :
Ceiling :
>= 8 km
>= 3000ft
5 to 8 km
1000 to 3000 ft
1500m to 5 km
500 to 1000 ft
800 to 1500m
200 to 500 ft
< 800m
< 200 ft
Symbols :   Thunderstorms  Fog  Heavy snow  Heavy precipitations  Wind > 20 kt
SIGMETs :     Misc.  Thunderstorms  Icing  Turbulence  Mountain Waves  Volcanic Ashes






- Airport Elevation : 1 ft


EGCK - Caernarfon

CURRENT METAR :
  • 240350Z AUTO 18016KT 9999 BKN009/// 11/10 Q1001

EXPIRED METARs :
  • 240320Z AUTO 17018KT 9999 FEW006/// BKN020/// OVC041/// 11/10 Q1002
  • 240250Z AUTO 17016KT 9999 -RA FEW004/// BKN021/// 11/09 Q1002
  • 240220Z AUTO 16016G26KT 9999 OVC017/// 11/10 Q1002
  • 240150Z AUTO 16017KT 9999 OVC015/// 12/10 Q1002
  • 240120Z AUTO 18014KT 9999 OVC010/// 12/10 Q1002

TAF TAF EGCK
Valid from the 24 at 03:00 until the 24 at 12:00 UTC


240159Z 2403/2412 18013KT 9999 FEW012 SCT030
BECMG 2403/2406 25009KT
TEMPO 2403/2406 8000 -RA BKN012
PROB30
TEMPO 2403/2406 4000 RADZ BKN007



MET'MAP, your aeronautical weather chart ! - Copyright ORBIFLY December 2007 - Disclaimer

ORBIFLY MET'MAP TEAM :

Programming & Development : Alexandra Zaïnal
Concept & Development : Baudouin d'Aumeries
Co-Development & Prog : Marc-Olivier Méhu
Technical & hardware support : Manuel Goepfert

Contact : metmap@orbifly.com




SOURCES & CREDITS :

   NOAA